sensor_id;sensor_type;location;lat;lon;timestamp;P1;durP1;ratioP1;P2;durP2;ratioP2
12910;SDS011;6523;49.758;6.120;2024-02-16T00:01:03;4.47;;;3.40;;
12910;SDS011;6523;49.758;6.120;2024-02-16T00:03:29;5.33;;;3.00;;
12910;SDS011;6523;49.758;6.120;2024-02-16T00:05:54;4.20;;;3.30;;
12910;SDS011;6523;49.758;6.120;2024-02-16T00:08:20;4.67;;;3.03;;
12910;SDS011;6523;49.758;6.120;2024-02-16T00:10:46;4.57;;;3.60;;
12910;SDS011;6523;49.758;6.120;2024-02-16T00:13:13;5.37;;;3.40;;
12910;SDS011;6523;49.758;6.120;2024-02-16T00:15:38;4.80;;;3.17;;
12910;SDS011;6523;49.758;6.120;2024-02-16T00:18:04;3.97;;;3.30;;
12910;SDS011;6523;49.758;6.120;2024-02-16T00:20:31;3.67;;;2.80;;
12910;SDS011;6523;49.758;6.120;2024-02-16T00:22:56;3.73;;;3.13;;
12910;SDS011;6523;49.758;6.120;2024-02-16T00:25:22;3.83;;;3.37;;
12910;SDS011;6523;49.758;6.120;2024-02-16T00:27:48;3.37;;;2.50;;
12910;SDS011;6523;49.758;6.120;2024-02-16T00:30:15;3.00;;;2.80;;
12910;SDS011;6523;49.758;6.120;2024-02-16T00:32:42;4.53;;;3.13;;
12910;SDS011;6523;49.758;6.120;2024-02-16T00:35:10;3.23;;;2.93;;
12910;SDS011;6523;49.758;6.120;2024-02-16T00:37:36;3.77;;;3.00;;
12910;SDS011;6523;49.758;6.120;2024-02-16T00:40:03;3.80;;;3.10;;
12910;SDS011;6523;49.758;6.120;2024-02-16T00:42:29;3.50;;;2.47;;
12910;SDS011;6523;49.758;6.120;2024-02-16T00:44:56;5.50;;;4.07;;
12910;SDS011;6523;49.758;6.120;2024-02-16T00:47:22;4.90;;;4.00;;
12910;SDS011;6523;49.758;6.120;2024-02-16T00:49:49;4.63;;;3.63;;
12910;SDS011;6523;49.758;6.120;2024-02-16T00:52:14;4.63;;;3.80;;
12910;SDS011;6523;49.758;6.120;2024-02-16T00:54:40;5.17;;;3.80;;
12910;SDS011;6523;49.758;6.120;2024-02-16T00:57:05;4.27;;;3.10;;
12910;SDS011;6523;49.758;6.120;2024-02-16T00:59:31;3.53;;;3.23;;
12910;SDS011;6523;49.758;6.120;2024-02-16T01:01:57;6.40;;;3.37;;
12910;SDS011;6523;49.758;6.120;2024-02-16T01:04:23;8.00;;;4.07;;
12910;SDS011;6523;49.758;6.120;2024-02-16T01:06:48;5.27;;;4.23;;
12910;SDS011;6523;49.758;6.120;2024-02-16T01:09:15;13.20;;;8.00;;
12910;SDS011;6523;49.758;6.120;2024-02-16T01:11:41;24.17;;;21.80;;
12910;SDS011;6523;49.758;6.120;2024-02-16T01:14:07;15.17;;;13.70;;
12910;SDS011;6523;49.758;6.120;2024-02-16T01:16:33;12.57;;;11.30;;
12910;SDS011;6523;49.758;6.120;2024-02-16T01:18:58;17.77;;;16.17;;
12910;SDS011;6523;49.758;6.120;2024-02-16T01:21:24;6.23;;;5.30;;
12910;SDS011;6523;49.758;6.120;2024-02-16T01:23:50;7.90;;;5.50;;
12910;SDS011;6523;49.758;6.120;2024-02-16T01:26:15;6.13;;;4.60;;
12910;SDS011;6523;49.758;6.120;2024-02-16T01:28:41;12.53;;;8.73;;
12910;SDS011;6523;49.758;6.120;2024-02-16T01:31:07;10.37;;;7.07;;
12910;SDS011;6523;49.758;6.120;2024-02-16T01:33:35;10.13;;;6.73;;
12910;SDS011;6523;49.758;6.120;2024-02-16T01:36:02;8.03;;;6.60;;
12910;SDS011;6523;49.758;6.120;2024-02-16T01:38:28;7.67;;;5.80;;
12910;SDS011;6523;49.758;6.120;2024-02-16T01:40:53;10.10;;;6.00;;
12910;SDS011;6523;49.758;6.120;2024-02-16T01:43:19;8.30;;;5.60;;
12910;SDS011;6523;49.758;6.120;2024-02-16T01:45:48;8.07;;;4.77;;
12910;SDS011;6523;49.758;6.120;2024-02-16T01:48:16;6.63;;;4.93;;
12910;SDS011;6523;49.758;6.120;2024-02-16T01:50:42;7.10;;;4.90;;
12910;SDS011;6523;49.758;6.120;2024-02-16T01:53:09;6.00;;;4.13;;
12910;SDS011;6523;49.758;6.120;2024-02-16T01:55:36;5.87;;;4.43;;
12910;SDS011;6523;49.758;6.120;2024-02-16T01:58:02;7.17;;;3.37;;
12910;SDS011;6523;49.758;6.120;2024-02-16T02:00:29;5.57;;;3.57;;
12910;SDS011;6523;49.758;6.120;2024-02-16T02:02:55;5.47;;;3.33;;
12910;SDS011;6523;49.758;6.120;2024-02-16T02:05:22;4.00;;;3.60;;
12910;SDS011;6523;49.758;6.120;2024-02-16T02:07:48;5.43;;;3.73;;
12910;SDS011;6523;49.758;6.120;2024-02-16T02:10:14;6.07;;;4.77;;
12910;SDS011;6523;49.758;6.120;2024-02-16T02:12:40;9.20;;;4.37;;
12910;SDS011;6523;49.758;6.120;2024-02-16T02:15:07;6.77;;;4.83;;
12910;SDS011;6523;49.758;6.120;2024-02-16T02:17:34;5.97;;;4.90;;
12910;SDS011;6523;49.758;6.120;2024-02-16T02:20:00;4.70;;;4.07;;
12910;SDS011;6523;49.758;6.120;2024-02-16T02:22:26;5.63;;;3.40;;
12910;SDS011;6523;49.758;6.120;2024-02-16T02:24:52;6.33;;;3.40;;
12910;SDS011;6523;49.758;6.120;2024-02-16T02:27:20;4.03;;;3.47;;
12910;SDS011;6523;49.758;6.120;2024-02-16T02:29:46;7.27;;;3.40;;
12910;SDS011;6523;49.758;6.120;2024-02-16T02:32:12;4.47;;;2.87;;
12910;SDS011;6523;49.758;6.120;2024-02-16T02:34:38;5.10;;;3.10;;
12910;SDS011;6523;49.758;6.120;2024-02-16T02:37:04;4.70;;;3.00;;
12910;SDS011;6523;49.758;6.120;2024-02-16T02:39:31;3.37;;;2.80;;
12910;SDS011;6523;49.758;6.120;2024-02-16T02:41:57;5.47;;;3.30;;
12910;SDS011;6523;49.758;6.120;2024-02-16T02:44:23;5.47;;;3.03;;
12910;SDS011;6523;49.758;6.120;2024-02-16T02:46:50;4.47;;;3.17;;
12910;SDS011;6523;49.758;6.120;2024-02-16T02:49:16;4.37;;;2.97;;
12910;SDS011;6523;49.758;6.120;2024-02-16T02:51:42;6.27;;;2.80;;
12910;SDS011;6523;49.758;6.120;2024-02-16T02:54:08;4.47;;;3.00;;
12910;SDS011;6523;49.758;6.120;2024-02-16T02:56:33;4.90;;;2.70;;
12910;SDS011;6523;49.758;6.120;2024-02-16T02:58:59;5.43;;;2.80;;
12910;SDS011;6523;49.758;6.120;2024-02-16T03:01:25;4.57;;;2.80;;
12910;SDS011;6523;49.758;6.120;2024-02-16T03:03:50;4.40;;;2.50;;
12910;SDS011;6523;49.758;6.120;2024-02-16T03:06:19;4.30;;;3.10;;
12910;SDS011;6523;49.758;6.120;2024-02-16T03:08:45;6.33;;;3.17;;
12910;SDS011;6523;49.758;6.120;2024-02-16T03:11:11;4.70;;;3.20;;
12910;SDS011;6523;49.758;6.120;2024-02-16T03:13:37;3.57;;;2.70;;
12910;SDS011;6523;49.758;6.120;2024-02-16T03:16:02;2.60;;;2.40;;
12910;SDS011;6523;49.758;6.120;2024-02-16T03:18:29;3.00;;;2.70;;
12910;SDS011;6523;49.758;6.120;2024-02-16T03:20:55;5.43;;;2.30;;
12910;SDS011;6523;49.758;6.120;2024-02-16T03:23:22;3.33;;;2.50;;
12910;SDS011;6523;49.758;6.120;2024-02-16T03:25:48;4.47;;;2.40;;
12910;SDS011;6523;49.758;6.120;2024-02-16T03:28:14;3.43;;;2.30;;
12910;SDS011;6523;49.758;6.120;2024-02-16T03:30:40;5.17;;;2.70;;
12910;SDS011;6523;49.758;6.120;2024-02-16T03:33:07;4.10;;;2.50;;
12910;SDS011;6523;49.758;6.120;2024-02-16T03:35:33;3.93;;;2.43;;
12910;SDS011;6523;49.758;6.120;2024-02-16T03:37:59;4.17;;;2.73;;
12910;SDS011;6523;49.758;6.120;2024-02-16T03:40:25;4.87;;;2.37;;
12910;SDS011;6523;49.758;6.120;2024-02-16T03:42:54;3.50;;;2.30;;
12910;SDS011;6523;49.758;6.120;2024-02-16T03:45:20;5.07;;;2.70;;
12910;SDS011;6523;49.758;6.120;2024-02-16T03:47:46;3.17;;;2.53;;
12910;SDS011;6523;49.758;6.120;2024-02-16T03:50:14;4.33;;;2.57;;
12910;SDS011;6523;49.758;6.120;2024-02-16T03:52:40;4.13;;;2.60;;
12910;SDS011;6523;49.758;6.120;2024-02-16T03:55:05;5.07;;;2.53;;
12910;SDS011;6523;49.758;6.120;2024-02-16T03:57:32;3.77;;;2.70;;
12910;SDS011;6523;49.758;6.120;2024-02-16T03:59:57;3.30;;;2.23;;
12910;SDS011;6523;49.758;6.120;2024-02-16T04:02:24;2.93;;;2.47;;
12910;SDS011;6523;49.758;6.120;2024-02-16T04:04:49;4.13;;;2.30;;
12910;SDS011;6523;49.758;6.120;2024-02-16T04:07:15;3.73;;;2.40;;
12910;SDS011;6523;49.758;6.120;2024-02-16T04:09:41;4.23;;;2.80;;
12910;SDS011;6523;49.758;6.120;2024-02-16T04:12:07;2.70;;;2.40;;
12910;SDS011;6523;49.758;6.120;2024-02-16T04:14:33;4.00;;;2.43;;
12910;SDS011;6523;49.758;6.120;2024-02-16T04:16:59;3.97;;;2.37;;
12910;SDS011;6523;49.758;6.120;2024-02-16T04:19:27;3.60;;;2.20;;
12910;SDS011;6523;49.758;6.120;2024-02-16T04:21:53;2.97;;;2.27;;
12910;SDS011;6523;49.758;6.120;2024-02-16T04:24:20;4.37;;;2.17;;
12910;SDS011;6523;49.758;6.120;2024-02-16T04:26:45;4.27;;;2.73;;
12910;SDS011;6523;49.758;6.120;2024-02-16T04:29:11;2.90;;;2.10;;
12910;SDS011;6523;49.758;6.120;2024-02-16T04:31:40;3.23;;;2.27;;
12910;SDS011;6523;49.758;6.120;2024-02-16T04:34:11;7.63;;;2.40;;
12910;SDS011;6523;49.758;6.120;2024-02-16T04:36:36;4.10;;;2.50;;
12910;SDS011;6523;49.758;6.120;2024-02-16T04:39:02;3.77;;;2.60;;
12910;SDS011;6523;49.758;6.120;2024-02-16T04:41:28;5.43;;;2.40;;
12910;SDS011;6523;49.758;6.120;2024-02-16T04:43:54;3.03;;;2.13;;
12910;SDS011;6523;49.758;6.120;2024-02-16T04:46:20;2.77;;;2.10;;
12910;SDS011;6523;49.758;6.120;2024-02-16T04:48:46;4.83;;;2.70;;
12910;SDS011;6523;49.758;6.120;2024-02-16T04:51:11;3.60;;;2.20;;
12910;SDS011;6523;49.758;6.120;2024-02-16T04:53:37;4.27;;;2.40;;
12910;SDS011;6523;49.758;6.120;2024-02-16T04:56:03;2.83;;;2.37;;
12910;SDS011;6523;49.758;6.120;2024-02-16T04:58:30;3.73;;;2.23;;
12910;SDS011;6523;49.758;6.120;2024-02-16T05:00:56;2.27;;;2.07;;
12910;SDS011;6523;49.758;6.120;2024-02-16T05:03:22;3.23;;;2.60;;
12910;SDS011;6523;49.758;6.120;2024-02-16T05:05:48;3.90;;;2.17;;
12910;SDS011;6523;49.758;6.120;2024-02-16T05:08:14;3.60;;;2.03;;
12910;SDS011;6523;49.758;6.120;2024-02-16T05:10:40;4.30;;;2.30;;
12910;SDS011;6523;49.758;6.120;2024-02-16T05:13:06;3.07;;;2.23;;
12910;SDS011;6523;49.758;6.120;2024-02-16T05:15:31;2.83;;;1.90;;
12910;SDS011;6523;49.758;6.120;2024-02-16T05:17:57;3.40;;;2.10;;
12910;SDS011;6523;49.758;6.120;2024-02-16T05:20:23;3.40;;;2.00;;
12910;SDS011;6523;49.758;6.120;2024-02-16T05:22:49;3.00;;;2.03;;
12910;SDS011;6523;49.758;6.120;2024-02-16T05:25:16;3.90;;;2.00;;
12910;SDS011;6523;49.758;6.120;2024-02-16T05:27:45;4.20;;;2.10;;
12910;SDS011;6523;49.758;6.120;2024-02-16T05:30:12;2.20;;;1.97;;
12910;SDS011;6523;49.758;6.120;2024-02-16T05:32:40;3.20;;;2.23;;
12910;SDS011;6523;49.758;6.120;2024-02-16T05:35:07;3.40;;;2.20;;
12910;SDS011;6523;49.758;6.120;2024-02-16T05:37:48;3.70;;;2.10;;
12910;SDS011;6523;49.758;6.120;2024-02-16T05:40:16;3.57;;;2.53;;
12910;SDS011;6523;49.758;6.120;2024-02-16T05:42:55;2.57;;;2.00;;
12910;SDS011;6523;49.758;6.120;2024-02-16T05:45:25;2.77;;;2.13;;
12910;SDS011;6523;49.758;6.120;2024-02-16T05:47:51;3.97;;;2.33;;
12910;SDS011;6523;49.758;6.120;2024-02-16T05:50:17;3.00;;;2.20;;
12910;SDS011;6523;49.758;6.120;2024-02-16T05:52:45;2.50;;;2.10;;
12910;SDS011;6523;49.758;6.120;2024-02-16T05:55:11;4.30;;;2.00;;
12910;SDS011;6523;49.758;6.120;2024-02-16T05:57:38;3.30;;;2.47;;
12910;SDS011;6523;49.758;6.120;2024-02-16T06:00:04;4.33;;;2.27;;
12910;SDS011;6523;49.758;6.120;2024-02-16T06:02:34;3.53;;;2.20;;
12910;SDS011;6523;49.758;6.120;2024-02-16T06:05:00;3.43;;;2.20;;
12910;SDS011;6523;49.758;6.120;2024-02-16T06:07:27;4.53;;;2.17;;
12910;SDS011;6523;49.758;6.120;2024-02-16T06:09:56;2.90;;;2.60;;
12910;SDS011;6523;49.758;6.120;2024-02-16T06:12:22;4.07;;;2.33;;
12910;SDS011;6523;49.758;6.120;2024-02-16T06:14:49;2.63;;;2.23;;
12910;SDS011;6523;49.758;6.120;2024-02-16T06:17:14;2.90;;;2.20;;
12910;SDS011;6523;49.758;6.120;2024-02-16T06:19:41;3.67;;;2.10;;
12910;SDS011;6523;49.758;6.120;2024-02-16T06:22:07;5.10;;;2.50;;
12910;SDS011;6523;49.758;6.120;2024-02-16T06:24:36;3.77;;;2.20;;
12910;SDS011;6523;49.758;6.120;2024-02-16T06:27:01;3.83;;;2.67;;
12910;SDS011;6523;49.758;6.120;2024-02-16T06:29:28;3.30;;;2.37;;
12910;SDS011;6523;49.758;6.120;2024-02-16T06:31:55;5.10;;;2.30;;
12910;SDS011;6523;49.758;6.120;2024-02-16T06:34:21;2.60;;;2.10;;
12910;SDS011;6523;49.758;6.120;2024-02-16T06:36:46;2.90;;;2.27;;
12910;SDS011;6523;49.758;6.120;2024-02-16T06:39:13;2.67;;;2.10;;
12910;SDS011;6523;49.758;6.120;2024-02-16T06:41:44;3.90;;;2.30;;
12910;SDS011;6523;49.758;6.120;2024-02-16T06:44:11;2.40;;;2.20;;
12910;SDS011;6523;49.758;6.120;2024-02-16T06:46:40;2.70;;;2.20;;
12910;SDS011;6523;49.758;6.120;2024-02-16T06:49:06;2.73;;;2.00;;
12910;SDS011;6523;49.758;6.120;2024-02-16T06:51:31;3.13;;;2.20;;
12910;SDS011;6523;49.758;6.120;2024-02-16T06:53:57;3.13;;;2.20;;
12910;SDS011;6523;49.758;6.120;2024-02-16T06:56:23;3.17;;;1.73;;
12910;SDS011;6523;49.758;6.120;2024-02-16T06:58:49;3.47;;;2.60;;
12910;SDS011;6523;49.758;6.120;2024-02-16T07:01:15;2.70;;;2.20;;
12910;SDS011;6523;49.758;6.120;2024-02-16T07:03:42;3.70;;;2.03;;
12910;SDS011;6523;49.758;6.120;2024-02-16T07:06:08;3.47;;;2.30;;
12910;SDS011;6523;49.758;6.120;2024-02-16T07:08:41;2.57;;;2.33;;
12910;SDS011;6523;49.758;6.120;2024-02-16T07:11:08;4.33;;;2.40;;
12910;SDS011;6523;49.758;6.120;2024-02-16T07:13:38;3.70;;;2.23;;
12910;SDS011;6523;49.758;6.120;2024-02-16T07:16:05;3.47;;;2.47;;
12910;SDS011;6523;49.758;6.120;2024-02-16T07:18:34;4.57;;;2.40;;
12910;SDS011;6523;49.758;6.120;2024-02-16T07:21:01;5.77;;;2.77;;
12910;SDS011;6523;49.758;6.120;2024-02-16T07:23:27;3.03;;;2.23;;
12910;SDS011;6523;49.758;6.120;2024-02-16T07:25:54;3.50;;;2.47;;
12910;SDS011;6523;49.758;6.120;2024-02-16T07:28:22;3.90;;;2.43;;
12910;SDS011;6523;49.758;6.120;2024-02-16T07:30:49;3.93;;;2.40;;
12910;SDS011;6523;49.758;6.120;2024-02-16T07:33:16;3.57;;;2.33;;
12910;SDS011;6523;49.758;6.120;2024-02-16T07:35:42;2.97;;;2.67;;
12910;SDS011;6523;49.758;6.120;2024-02-16T07:38:09;3.87;;;2.50;;
12910;SDS011;6523;49.758;6.120;2024-02-16T07:40:35;2.43;;;2.23;;
12910;SDS011;6523;49.758;6.120;2024-02-16T07:43:01;5.37;;;2.73;;
12910;SDS011;6523;49.758;6.120;2024-02-16T07:45:28;3.57;;;2.80;;
12910;SDS011;6523;49.758;6.120;2024-02-16T07:47:53;5.17;;;2.63;;
12910;SDS011;6523;49.758;6.120;2024-02-16T07:50:22;3.87;;;2.10;;
12910;SDS011;6523;49.758;6.120;2024-02-16T07:52:49;4.23;;;2.60;;
12910;SDS011;6523;49.758;6.120;2024-02-16T07:55:15;4.70;;;2.50;;
12910;SDS011;6523;49.758;6.120;2024-02-16T07:57:45;3.30;;;2.80;;
12910;SDS011;6523;49.758;6.120;2024-02-16T08:00:12;3.10;;;2.40;;
12910;SDS011;6523;49.758;6.120;2024-02-16T08:02:41;4.50;;;2.53;;
12910;SDS011;6523;49.758;6.120;2024-02-16T08:05:08;6.40;;;2.73;;
12910;SDS011;6523;49.758;6.120;2024-02-16T08:07:37;4.10;;;3.07;;
12910;SDS011;6523;49.758;6.120;2024-02-16T08:10:03;3.00;;;2.60;;
12910;SDS011;6523;49.758;6.120;2024-02-16T08:12:29;4.30;;;2.67;;
12910;SDS011;6523;49.758;6.120;2024-02-16T08:14:56;3.30;;;2.43;;
12910;SDS011;6523;49.758;6.120;2024-02-16T08:17:23;5.97;;;2.70;;
12910;SDS011;6523;49.758;6.120;2024-02-16T08:19:53;7.13;;;2.57;;
12910;SDS011;6523;49.758;6.120;2024-02-16T08:22:19;3.83;;;2.63;;
12910;SDS011;6523;49.758;6.120;2024-02-16T08:24:45;3.10;;;2.53;;
12910;SDS011;6523;49.758;6.120;2024-02-16T08:27:15;4.57;;;2.70;;
12910;SDS011;6523;49.758;6.120;2024-02-16T08:29:41;4.03;;;2.57;;
12910;SDS011;6523;49.758;6.120;2024-02-16T08:32:07;5.83;;;2.80;;
12910;SDS011;6523;49.758;6.120;2024-02-16T08:34:34;3.07;;;2.70;;
12910;SDS011;6523;49.758;6.120;2024-02-16T08:37:01;4.63;;;2.90;;
12910;SDS011;6523;49.758;6.120;2024-02-16T08:39:28;3.70;;;2.60;;
12910;SDS011;6523;49.758;6.120;2024-02-16T08:41:54;4.23;;;2.57;;
12910;SDS011;6523;49.758;6.120;2024-02-16T08:44:20;3.23;;;2.57;;
12910;SDS011;6523;49.758;6.120;2024-02-16T08:46:46;7.50;;;2.57;;
12910;SDS011;6523;49.758;6.120;2024-02-16T08:49:13;3.73;;;2.93;;
12910;SDS011;6523;49.758;6.120;2024-02-16T08:51:39;4.67;;;2.60;;
12910;SDS011;6523;49.758;6.120;2024-02-16T08:54:05;4.10;;;2.83;;
12910;SDS011;6523;49.758;6.120;2024-02-16T08:56:31;3.70;;;2.80;;
12910;SDS011;6523;49.758;6.120;2024-02-16T08:58:57;3.33;;;2.47;;
12910;SDS011;6523;49.758;6.120;2024-02-16T09:03:57;3.23;;;2.50;;
12910;SDS011;6523;49.758;6.120;2024-02-16T09:06:23;3.37;;;2.67;;
12910;SDS011;6523;49.758;6.120;2024-02-16T09:08:49;5.73;;;2.70;;
12910;SDS011;6523;49.758;6.120;2024-02-16T09:11:14;3.40;;;2.33;;
12910;SDS011;6523;49.758;6.120;2024-02-16T09:13:40;6.87;;;2.73;;
12910;SDS011;6523;49.758;6.120;2024-02-16T09:16:12;4.97;;;2.67;;
12910;SDS011;6523;49.758;6.120;2024-02-16T09:18:38;4.37;;;2.40;;
12910;SDS011;6523;49.758;6.120;2024-02-16T09:21:04;3.50;;;2.80;;
12910;SDS011;6523;49.758;6.120;2024-02-16T09:23:31;3.70;;;2.93;;
12910;SDS011;6523;49.758;6.120;2024-02-16T09:26:00;4.10;;;2.60;;
12910;SDS011;6523;49.758;6.120;2024-02-16T09:30:53;3.93;;;2.50;;
12910;SDS011;6523;49.758;6.120;2024-02-16T09:33:20;4.60;;;3.00;;
12910;SDS011;6523;49.758;6.120;2024-02-16T09:35:47;3.53;;;2.60;;
12910;SDS011;6523;49.758;6.120;2024-02-16T09:38:15;7.53;;;2.77;;
12910;SDS011;6523;49.758;6.120;2024-02-16T09:40:41;3.70;;;3.20;;
12910;SDS011;6523;49.758;6.120;2024-02-16T09:43:07;3.70;;;2.47;;
12910;SDS011;6523;49.758;6.120;2024-02-16T09:45:33;4.70;;;3.00;;
12910;SDS011;6523;49.758;6.120;2024-02-16T09:47:59;5.00;;;3.00;;
12910;SDS011;6523;49.758;6.120;2024-02-16T09:50:27;4.93;;;3.10;;
12910;SDS011;6523;49.758;6.120;2024-02-16T09:52:54;6.47;;;2.83;;
12910;SDS011;6523;49.758;6.120;2024-02-16T09:55:21;4.13;;;3.10;;
12910;SDS011;6523;49.758;6.120;2024-02-16T09:57:47;7.13;;;3.13;;
12910;SDS011;6523;49.758;6.120;2024-02-16T10:00:23;2.90;;;2.23;;
12910;SDS011;6523;49.758;6.120;2024-02-16T10:02:48;5.53;;;3.00;;
12910;SDS011;6523;49.758;6.120;2024-02-16T10:05:15;6.23;;;2.80;;
12910;SDS011;6523;49.758;6.120;2024-02-16T10:07:42;3.13;;;2.20;;
12910;SDS011;6523;49.758;6.120;2024-02-16T10:12:47;5.97;;;3.07;;
12910;SDS011;6523;49.758;6.120;2024-02-16T10:15:19;5.23;;;3.17;;
12910;SDS011;6523;49.758;6.120;2024-02-16T10:17:56;4.53;;;2.80;;
12910;SDS011;6523;49.758;6.120;2024-02-16T10:20:23;3.37;;;3.03;;
12910;SDS011;6523;49.758;6.120;2024-02-16T10:22:49;3.33;;;2.57;;
12910;SDS011;6523;49.758;6.120;2024-02-16T10:25:14;5.57;;;3.37;;
12910;SDS011;6523;49.758;6.120;2024-02-16T10:27:40;4.93;;;2.83;;
12910;SDS011;6523;49.758;6.120;2024-02-16T10:30:07;3.60;;;2.87;;
12910;SDS011;6523;49.758;6.120;2024-02-16T10:32:37;4.27;;;2.57;;
12910;SDS011;6523;49.758;6.120;2024-02-16T10:35:06;7.27;;;3.37;;
12910;SDS011;6523;49.758;6.120;2024-02-16T10:37:33;5.63;;;3.07;;
12910;SDS011;6523;49.758;6.120;2024-02-16T10:39:59;5.77;;;2.57;;
12910;SDS011;6523;49.758;6.120;2024-02-16T10:42:27;4.60;;;2.73;;
12910;SDS011;6523;49.758;6.120;2024-02-16T10:44:54;5.97;;;3.10;;
12910;SDS011;6523;49.758;6.120;2024-02-16T10:47:20;5.17;;;3.00;;
12910;SDS011;6523;49.758;6.120;2024-02-16T10:49:46;6.10;;;3.20;;
12910;SDS011;6523;49.758;6.120;2024-02-16T10:52:12;4.70;;;3.03;;
12910;SDS011;6523;49.758;6.120;2024-02-16T10:54:39;5.57;;;3.20;;
12910;SDS011;6523;49.758;6.120;2024-02-16T10:57:07;8.87;;;3.10;;
12910;SDS011;6523;49.758;6.120;2024-02-16T10:59:43;5.60;;;3.00;;
12910;SDS011;6523;49.758;6.120;2024-02-16T11:02:10;5.43;;;3.10;;
12910;SDS011;6523;49.758;6.120;2024-02-16T11:04:37;4.20;;;2.90;;
12910;SDS011;6523;49.758;6.120;2024-02-16T11:07:10;3.97;;;3.47;;
12910;SDS011;6523;49.758;6.120;2024-02-16T11:09:45;5.30;;;2.93;;
12910;SDS011;6523;49.758;6.120;2024-02-16T11:12:15;6.93;;;3.50;;
12910;SDS011;6523;49.758;6.120;2024-02-16T11:14:47;6.03;;;3.73;;
12910;SDS011;6523;49.758;6.120;2024-02-16T11:17:21;6.00;;;3.30;;
12910;SDS011;6523;49.758;6.120;2024-02-16T11:19:48;4.83;;;3.40;;
12910;SDS011;6523;49.758;6.120;2024-02-16T11:22:15;7.93;;;3.60;;
12910;SDS011;6523;49.758;6.120;2024-02-16T11:24:48;4.73;;;3.13;;
12910;SDS011;6523;49.758;6.120;2024-02-16T11:27:15;5.47;;;3.40;;
12910;SDS011;6523;49.758;6.120;2024-02-16T11:29:44;6.30;;;3.53;;
12910;SDS011;6523;49.758;6.120;2024-02-16T11:32:10;5.10;;;3.23;;
12910;SDS011;6523;49.758;6.120;2024-02-16T11:34:36;6.57;;;3.80;;
12910;SDS011;6523;49.758;6.120;2024-02-16T11:37:05;7.90;;;4.13;;
12910;SDS011;6523;49.758;6.120;2024-02-16T11:39:31;4.37;;;3.00;;
12910;SDS011;6523;49.758;6.120;2024-02-16T11:42:02;6.77;;;3.37;;
12910;SDS011;6523;49.758;6.120;2024-02-16T11:44:30;4.50;;;3.17;;
12910;SDS011;6523;49.758;6.120;2024-02-16T11:47:00;6.70;;;3.57;;
12910;SDS011;6523;49.758;6.120;2024-02-16T11:49:28;5.40;;;3.17;;
12910;SDS011;6523;49.758;6.120;2024-02-16T11:51:55;4.80;;;3.37;;
12910;SDS011;6523;49.758;6.120;2024-02-16T11:54:21;6.50;;;4.00;;
12910;SDS011;6523;49.758;6.120;2024-02-16T11:56:47;7.30;;;3.40;;
12910;SDS011;6523;49.758;6.120;2024-02-16T11:59:17;4.17;;;2.83;;
12910;SDS011;6523;49.758;6.120;2024-02-16T12:01:49;4.87;;;3.03;;
12910;SDS011;6523;49.758;6.120;2024-02-16T12:04:22;4.60;;;2.90;;
12910;SDS011;6523;49.758;6.120;2024-02-16T12:06:56;5.60;;;3.63;;
12910;SDS011;6523;49.758;6.120;2024-02-16T12:09:22;7.50;;;4.00;;
12910;SDS011;6523;49.758;6.120;2024-02-16T12:11:49;8.47;;;3.47;;
12910;SDS011;6523;49.758;6.120;2024-02-16T12:14:18;8.47;;;3.37;;
12910;SDS011;6523;49.758;6.120;2024-02-16T12:16:55;5.17;;;3.70;;
12910;SDS011;6523;49.758;6.120;2024-02-16T12:19:22;3.60;;;2.80;;
12910;SDS011;6523;49.758;6.120;2024-02-16T12:21:49;4.13;;;3.20;;
12910;SDS011;6523;49.758;6.120;2024-02-16T12:24:18;4.93;;;3.30;;
12910;SDS011;6523;49.758;6.120;2024-02-16T12:26:45;5.40;;;3.13;;
12910;SDS011;6523;49.758;6.120;2024-02-16T12:29:11;6.87;;;3.27;;
12910;SDS011;6523;49.758;6.120;2024-02-16T12:31:41;4.90;;;2.93;;
12910;SDS011;6523;49.758;6.120;2024-02-16T12:34:08;5.63;;;2.80;;
12910;SDS011;6523;49.758;6.120;2024-02-16T12:36:34;4.00;;;3.00;;
12910;SDS011;6523;49.758;6.120;2024-02-16T12:39:00;6.23;;;3.23;;
12910;SDS011;6523;49.758;6.120;2024-02-16T12:41:28;5.20;;;3.27;;
12910;SDS011;6523;49.758;6.120;2024-02-16T12:43:58;4.97;;;2.53;;
12910;SDS011;6523;49.758;6.120;2024-02-16T12:46:24;5.97;;;3.03;;
12910;SDS011;6523;49.758;6.120;2024-02-16T12:48:49;2.97;;;2.33;;
12910;SDS011;6523;49.758;6.120;2024-02-16T12:51:15;4.23;;;2.93;;
12910;SDS011;6523;49.758;6.120;2024-02-16T12:53:41;4.90;;;2.90;;
12910;SDS011;6523;49.758;6.120;2024-02-16T12:56:07;4.53;;;2.73;;
12910;SDS011;6523;49.758;6.120;2024-02-16T12:58:34;4.47;;;2.80;;
12910;SDS011;6523;49.758;6.120;2024-02-16T13:01:02;6.70;;;3.00;;
12910;SDS011;6523;49.758;6.120;2024-02-16T13:03:31;4.00;;;2.57;;
12910;SDS011;6523;49.758;6.120;2024-02-16T13:06:00;3.87;;;2.83;;
12910;SDS011;6523;49.758;6.120;2024-02-16T13:08:28;4.70;;;3.37;;
12910;SDS011;6523;49.758;6.120;2024-02-16T13:10:54;4.73;;;3.00;;
12910;SDS011;6523;49.758;6.120;2024-02-16T13:13:20;2.70;;;2.50;;
12910;SDS011;6523;49.758;6.120;2024-02-16T13:15:46;4.03;;;2.67;;
12910;SDS011;6523;49.758;6.120;2024-02-16T13:18:15;4.43;;;2.60;;
12910;SDS011;6523;49.758;6.120;2024-02-16T13:20:41;5.40;;;2.70;;
12910;SDS011;6523;49.758;6.120;2024-02-16T13:23:08;5.07;;;2.80;;
12910;SDS011;6523;49.758;6.120;2024-02-16T13:25:34;2.83;;;2.40;;
12910;SDS011;6523;49.758;6.120;2024-02-16T13:28:00;4.63;;;3.17;;
12910;SDS011;6523;49.758;6.120;2024-02-16T13:30:26;6.43;;;3.03;;
12910;SDS011;6523;49.758;6.120;2024-02-16T13:32:52;4.60;;;2.53;;
12910;SDS011;6523;49.758;6.120;2024-02-16T13:35:18;3.30;;;2.30;;
12910;SDS011;6523;49.758;6.120;2024-02-16T13:37:44;4.17;;;2.73;;
12910;SDS011;6523;49.758;6.120;2024-02-16T13:40:10;3.53;;;2.80;;
12910;SDS011;6523;49.758;6.120;2024-02-16T13:42:38;4.03;;;2.50;;
12910;SDS011;6523;49.758;6.120;2024-02-16T13:45:05;2.87;;;2.30;;
12910;SDS011;6523;49.758;6.120;2024-02-16T13:47:31;2.50;;;2.00;;
12910;SDS011;6523;49.758;6.120;2024-02-16T13:49:57;3.50;;;2.30;;
12910;SDS011;6523;49.758;6.120;2024-02-16T13:52:24;3.97;;;2.50;;
12910;SDS011;6523;49.758;6.120;2024-02-16T13:54:50;4.30;;;2.20;;
12910;SDS011;6523;49.758;6.120;2024-02-16T13:57:16;4.37;;;2.27;;
12910;SDS011;6523;49.758;6.120;2024-02-16T13:59:45;3.70;;;2.20;;
12910;SDS011;6523;49.758;6.120;2024-02-16T14:02:11;2.47;;;2.20;;
12910;SDS011;6523;49.758;6.120;2024-02-16T14:04:37;2.87;;;2.20;;
12910;SDS011;6523;49.758;6.120;2024-02-16T14:07:03;6.03;;;1.97;;
12910;SDS011;6523;49.758;6.120;2024-02-16T14:09:29;3.80;;;2.17;;
12910;SDS011;6523;49.758;6.120;2024-02-16T14:11:54;4.60;;;2.07;;
12910;SDS011;6523;49.758;6.120;2024-02-16T14:14:23;3.57;;;2.00;;
12910;SDS011;6523;49.758;6.120;2024-02-16T14:16:48;3.03;;;2.10;;
12910;SDS011;6523;49.758;6.120;2024-02-16T14:19:14;3.57;;;2.23;;
12910;SDS011;6523;49.758;6.120;2024-02-16T14:21:40;2.37;;;2.17;;
12910;SDS011;6523;49.758;6.120;2024-02-16T14:24:07;5.10;;;2.00;;
12910;SDS011;6523;49.758;6.120;2024-02-16T14:26:35;2.30;;;2.10;;
12910;SDS011;6523;49.758;6.120;2024-02-16T14:29:00;3.73;;;2.00;;
12910;SDS011;6523;49.758;6.120;2024-02-16T14:31:26;4.73;;;2.03;;
12910;SDS011;6523;49.758;6.120;2024-02-16T14:33:52;2.13;;;1.93;;
12910;SDS011;6523;49.758;6.120;2024-02-16T14:36:17;4.07;;;2.07;;
12910;SDS011;6523;49.758;6.120;2024-02-16T14:38:43;3.43;;;1.93;;
12910;SDS011;6523;49.758;6.120;2024-02-16T14:41:08;3.30;;;2.13;;
12910;SDS011;6523;49.758;6.120;2024-02-16T14:43:34;2.97;;;1.87;;
12910;SDS011;6523;49.758;6.120;2024-02-16T14:46:00;3.67;;;2.27;;
12910;SDS011;6523;49.758;6.120;2024-02-16T14:48:29;7.13;;;2.63;;
12910;SDS011;6523;49.758;6.120;2024-02-16T14:50:54;3.07;;;2.40;;
12910;SDS011;6523;49.758;6.120;2024-02-16T14:53:20;2.70;;;2.30;;
12910;SDS011;6523;49.758;6.120;2024-02-16T14:55:47;3.60;;;2.40;;
12910;SDS011;6523;49.758;6.120;2024-02-16T14:58:13;2.90;;;2.37;;
12910;SDS011;6523;49.758;6.120;2024-02-16T15:00:38;1.93;;;1.83;;
12910;SDS011;6523;49.758;6.120;2024-02-16T15:03:04;3.73;;;1.90;;
12910;SDS011;6523;49.758;6.120;2024-02-16T15:05:30;2.60;;;2.07;;